Time;durP1;ratioP1;P1;durP2;ratioP2;P2;SDS_P1;SDS_P2;PMS_P1;PMS_P2;Temp;Humidity;BMP_temperature;BMP_pressure;BME280_temperature;BME280_humidity;BME280_pressure;Samples;Min_cycle;Max_cycle;Signal;HPM_P1;HPM_P2
2022/04/10 00:02:06;;;;;;;;;;;14.20;57.60;;;;;;5100745;28;20172;-66
2022/04/10 00:04:31;;;;;;;;;;;14.20;57.70;;;;;;5100755;28;19922;-66
2022/04/10 00:06:57;;;;;;;;;;;14.20;57.70;;;;;;5100707;28;19908;-67
2022/04/10 00:09:22;;;;;;;;;;;14.20;57.60;;;;;;5100685;28;19915;-66
2022/04/10 00:11:48;;;;;;;;;;;14.20;57.60;;;;;;5100027;28;19930;-66
2022/04/10 00:14:13;;;;;;;;;;;14.20;57.70;;;;;;5100486;28;20127;-67
2022/04/10 00:16:39;;;;;;;;;;;14.20;57.70;;;;;;5100585;28;19985;-67
2022/04/10 00:19:05;;;;;;;;;;;14.20;57.80;;;;;;5100835;28;19950;-66
2022/04/10 00:21:31;;;;;;;;;;;14.10;57.60;;;;;;5100529;28;20215;-68
2022/04/10 00:23:57;;;;;;;;;;;14.10;57.70;;;;;;5100502;28;19907;-67
2022/04/10 00:26:23;;;;;;;;;;;14.10;57.70;;;;;;5100437;28;19915;-66
2022/04/10 00:28:48;;;;;;;;;;;14.10;57.90;;;;;;5100382;28;19931;-66
2022/04/10 00:31:14;;;;;;;;;;;14.10;57.70;;;;;;5100306;28;20182;-66
2022/04/10 00:33:39;;;;;;;;;;;14.10;57.70;;;;;;5100377;28;19907;-66
2022/04/10 00:36:05;;;;;;;;;;;14.10;57.80;;;;;;5100237;28;19915;-67
2022/04/10 00:38:31;;;;;;;;;;;14.10;57.90;;;;;;5100222;28;19919;-66
2022/04/10 00:40:56;;;;;;;;;;;14.10;57.80;;;;;;5100195;28;19939;-66
2022/04/10 00:43:25;;;;;;;;;;;14.10;57.80;;;;;;5100267;28;20328;-66
2022/04/10 00:45:51;;;;;;;;;;;14.10;57.80;;;;;;5100217;28;20150;-67
2022/04/10 00:48:16;;;;;;;;;;;14.00;57.70;;;;;;5100043;28;19927;-67
2022/04/10 00:51:40;;;;;;;;;;;14.10;57.80;;;;;;5100158;28;19908;-66
2022/04/10 00:53:28;;;;;;;;;;;14.00;57.90;;;;;;5100018;28;19915;-66
2022/04/10 00:55:53;;;;;;;;;;;14.00;57.80;;;;;;5100081;28;19908;-67
2022/04/10 00:58:19;;;;;;;;;;;14.00;57.70;;;;;;5100079;28;19911;-67
2022/04/10 01:00:44;;;;;;;;;;;14.00;57.80;;;;;;5100144;28;19962;-67
2022/04/10 01:03:10;;;;;;;;;;;14.00;57.90;;;;;;5100050;28;20231;-66
2022/04/10 01:05:35;;;;;;;;;;;14.00;58.40;;;;;;5098762;28;19912;-67
2022/04/10 01:08:01;;;;;;;;;;;14.00;57.80;;;;;;5100036;28;19900;-67
2022/04/10 01:10:27;;;;;;;;;;;14.00;57.80;;;;;;5099996;28;19907;-67
2022/04/10 01:12:53;;;;;;;;;;;14.00;57.90;;;;;;5099872;28;19980;-67
2022/04/10 01:15:18;;;;;;;;;;;13.90;57.80;;;;;;5100019;28;19908;-67
2022/04/10 01:17:44;;;;;;;;;;;13.90;57.90;;;;;;5099875;28;19947;-67
2022/04/10 01:20:10;;;;;;;;;;;13.90;57.90;;;;;;5099961;28;19907;-66
2022/04/10 01:22:36;;;;;;;;;;;13.90;57.90;;;;;;5098559;28;19974;-66
2022/04/10 01:25:05;;;;;;;;;;;13.90;57.90;;;;;;5103661;28;20162;-66
2022/04/10 01:27:38;;;;;;;;;;;13.90;57.90;;;;;;5103818;28;20111;-66
2022/04/10 01:30:07;;;;;;;;;;;13.90;57.90;;;;;;5103857;28;19915;-67
2022/04/10 01:32:33;;;;;;;;;;;13.90;57.90;;;;;;5103743;28;19908;-67
2022/04/10 01:35:00;;;;;;;;;;;13.90;57.90;;;;;;5103786;28;20348;-67
2022/04/10 01:37:27;;;;;;;;;;;13.90;57.90;;;;;;5103580;28;20219;-67
2022/04/10 01:39:52;;;;;;;;;;;13.90;58.00;;;;;;5103577;28;19914;-67
2022/04/10 01:42:18;;;;;;;;;;;13.80;57.90;;;;;;5103591;28;19908;-67
2022/04/10 01:44:43;;;;;;;;;;;13.80;58.00;;;;;;5103503;28;19934;-67
2022/04/10 01:47:09;;;;;;;;;;;13.80;57.90;;;;;;5103233;28;20214;-66
2022/04/10 01:49:35;;;;;;;;;;;13.80;57.90;;;;;;5103444;28;19911;-66
2022/04/10 01:52:00;;;;;;;;;;;13.80;58.00;;;;;;5103380;28;20139;-67
2022/04/10 01:54:26;;;;;;;;;;;13.80;58.10;;;;;;5103304;28;20130;-66
2022/04/10 01:56:51;;;;;;;;;;;13.80;58.10;;;;;;5103271;28;20045;-66
2022/04/10 01:59:17;;;;;;;;;;;13.80;58.10;;;;;;5103191;28;20126;-67
2022/04/10 02:01:43;;;;;;;;;;;13.80;58.00;;;;;;5103183;28;19912;-66
2022/04/10 02:04:09;;;;;;;;;;;13.80;58.00;;;;;;5103149;28;20108;-67
2022/04/10 02:06:35;;;;;;;;;;;13.80;58.00;;;;;;5103131;28;19908;-66
2022/04/10 02:09:00;;;;;;;;;;;13.80;58.10;;;;;;5103070;28;20438;-66
2022/04/10 02:11:26;;;;;;;;;;;13.80;58.10;;;;;;5102977;28;19908;-68
2022/04/10 02:13:51;;;;;;;;;;;13.80;58.10;;;;;;5102967;28;20369;-67
2022/04/10 02:16:18;;;;;;;;;;;13.80;58.10;;;;;;5102937;28;19914;-65
2022/04/10 02:18:43;;;;;;;;;;;13.80;58.10;;;;;;5102815;28;19912;-65
2022/04/10 02:21:09;;;;;;;;;;;13.70;58.10;;;;;;5102886;28;19931;-67
2022/04/10 02:23:35;;;;;;;;;;;13.70;58.00;;;;;;5102763;28;19908;-67
2022/04/10 02:26:01;;;;;;;;;;;13.70;58.10;;;;;;5102703;28;19915;-66
2022/04/10 02:28:26;;;;;;;;;;;13.70;58.10;;;;;;5102670;28;20197;-67
2022/04/10 02:30:52;;;;;;;;;;;13.70;58.10;;;;;;5102614;28;19908;-67
2022/04/10 02:33:18;;;;;;;;;;;13.70;58.20;;;;;;5102615;28;19912;-67
2022/04/10 02:35:43;;;;;;;;;;;13.70;58.20;;;;;;5101943;28;19916;-66
2022/04/10 02:38:09;;;;;;;;;;;13.70;58.20;;;;;;5102493;28;19910;-66
2022/04/10 02:40:35;;;;;;;;;;;13.70;58.20;;;;;;5102418;28;19908;-66
2022/04/10 02:43:00;;;;;;;;;;;13.70;58.10;;;;;;5102348;28;19908;-67
2022/04/10 02:45:26;;;;;;;;;;;13.70;58.10;;;;;;5102260;28;19942;-67
2022/04/10 02:47:52;;;;;;;;;;;13.70;58.20;;;;;;5102140;28;19927;-67
2022/04/10 02:50:18;;;;;;;;;;;13.70;58.20;;;;;;5102272;28;19908;-68
2022/04/10 02:52:43;;;;;;;;;;;13.70;58.20;;;;;;5102190;28;19915;-67
2022/04/10 02:55:10;;;;;;;;;;;13.60;58.10;;;;;;5102065;28;19908;-67
2022/04/10 02:57:35;;;;;;;;;;;13.60;58.20;;;;;;5102017;28;20207;-67
2022/04/10 03:00:03;;;;;;;;;;;13.60;58.20;;;;;;5101994;28;19975;-67
2022/04/10 03:02:28;;;;;;;;;;;13.60;58.20;;;;;;5101916;28;19953;-66
2022/04/10 03:04:54;;;;;;;;;;;13.60;58.20;;;;;;5101871;28;19908;-66
2022/04/10 03:07:19;;;;;;;;;;;13.60;58.20;;;;;;5101882;28;19942;-67
2022/04/10 03:09:45;;;;;;;;;;;13.60;58.20;;;;;;5101747;28;19907;-66
2022/04/10 03:12:10;;;;;;;;;;;13.60;58.20;;;;;;5101779;28;20207;-67
2022/04/10 03:14:36;;;;;;;;;;;13.60;58.20;;;;;;5101772;28;20132;-67
2022/04/10 03:17:02;;;;;;;;;;;13.60;58.20;;;;;;5101518;28;19953;-66
2022/04/10 03:19:28;;;;;;;;;;;13.60;58.20;;;;;;5101603;28;19971;-66
2022/04/10 03:21:54;;;;;;;;;;;13.60;58.20;;;;;;5101609;28;19900;-66
2022/04/10 03:24:19;;;;;;;;;;;13.60;58.20;;;;;;5101562;28;19908;-67
2022/04/10 03:26:45;;;;;;;;;;;13.60;58.20;;;;;;5101494;28;20218;-67
2022/04/10 03:29:12;;;;;;;;;;;13.60;58.20;;;;;;5101416;28;19908;-67
2022/04/10 03:31:38;;;;;;;;;;;13.60;58.30;;;;;;5101429;28;19908;-66
2022/04/10 03:34:04;;;;;;;;;;;13.60;58.20;;;;;;5101340;28;19908;-68
2022/04/10 03:36:29;;;;;;;;;;;13.60;58.20;;;;;;5101310;28;19908;-67
2022/04/10 03:38:54;;;;;;;;;;;13.60;58.20;;;;;;5101138;28;19912;-67
2022/04/10 03:41:20;;;;;;;;;;;13.60;58.20;;;;;;5101176;28;20253;-67
2022/04/10 03:43:46;;;;;;;;;;;13.50;58.10;;;;;;5101439;28;19912;-66
2022/04/10 03:46:11;;;;;;;;;;;13.50;58.20;;;;;;5099897;28;19911;-66
2022/04/10 03:48:37;;;;;;;;;;;13.50;58.20;;;;;;5100906;28;19920;-67
2022/04/10 03:51:02;;;;;;;;;;;13.60;58.30;;;;;;5100949;28;20139;-66
2022/04/10 03:53:28;;;;;;;;;;;13.50;58.20;;;;;;5101071;28;19908;-67
2022/04/10 03:55:53;;;;;;;;;;;13.50;58.20;;;;;;5100805;28;19922;-66
2022/04/10 03:58:20;;;;;;;;;;;13.50;58.20;;;;;;5100752;28;20242;-67
2022/04/10 04:00:47;;;;;;;;;;;13.50;58.20;;;;;;5100849;28;19948;-66
2022/04/10 04:03:13;;;;;;;;;;;13.50;58.90;;;;;;5100698;28;19982;-66
2022/04/10 04:05:38;;;;;;;;;;;13.50;58.30;;;;;;5100733;28;19900;-66
2022/04/10 04:08:04;;;;;;;;;;;13.50;58.20;;;;;;5100648;28;20097;-66
2022/04/10 04:10:30;;;;;;;;;;;13.50;58.20;;;;;;5100659;28;20222;-66
2022/04/10 04:12:55;;;;;;;;;;;13.50;58.30;;;;;;5100656;28;19971;-67
2022/04/10 04:15:21;;;;;;;;;;;13.50;58.30;;;;;;5100569;28;19961;-66
2022/04/10 04:17:47;;;;;;;;;;;13.50;58.30;;;;;;5100796;28;19911;-67
2022/04/10 04:20:13;;;;;;;;;;;13.50;58.30;;;;;;5100475;28;20187;-66
2022/04/10 04:22:39;;;;;;;;;;;13.50;58.30;;;;;;5100634;28;19900;-66
2022/04/10 04:25:06;;;;;;;;;;;13.50;58.30;;;;;;5100382;28;19930;-67
2022/04/10 04:27:31;;;;;;;;;;;13.50;58.30;;;;;;5100316;28;19942;-66
2022/04/10 04:29:57;;;;;;;;;;;13.50;58.20;;;;;;5100436;28;19908;-66
2022/04/10 04:32:23;;;;;;;;;;;13.50;58.80;;;;;;5100181;28;20208;-67
2022/04/10 04:34:48;;;;;;;;;;;13.50;58.30;;;;;;5100214;28;19908;-67
2022/04/10 04:37:14;;;;;;;;;;;13.50;58.30;;;;;;5100085;28;19969;-66
2022/04/10 04:39:40;;;;;;;;;;;13.50;58.30;;;;;;5100313;28;20207;-67
2022/04/10 04:42:06;;;;;;;;;;;13.50;58.30;;;;;;5100118;28;19915;-67
2022/04/10 04:44:31;;;;;;;;;;;13.50;58.30;;;;;;5100111;28;19900;-66
2022/04/10 04:46:57;;;;;;;;;;;13.50;58.30;;;;;;5100117;28;20165;-66
2022/04/10 04:49:23;;;;;;;;;;;13.50;58.30;;;;;;5099707;28;20199;-67
2022/04/10 04:51:49;;;;;;;;;;;13.50;58.30;;;;;;5099931;28;19908;-67
2022/04/10 04:54:14;;;;;;;;;;;13.50;58.30;;;;;;5100074;28;20104;-66
2022/04/10 04:56:40;;;;;;;;;;;13.50;58.30;;;;;;5099974;28;19908;-67
2022/04/10 04:59:05;;;;;;;;;;;13.50;58.30;;;;;;5103978;28;19915;-66
2022/04/10 05:01:31;;;;;;;;;;;13.50;58.20;;;;;;5104370;28;19908;-66
2022/04/10 05:03:57;;;;;;;;;;;13.50;58.20;;;;;;5104088;28;19907;-67
2022/04/10 05:06:22;;;;;;;;;;;13.50;58.20;;;;;;5104077;28;20269;-67
2022/04/10 05:08:48;;;;;;;;;;;13.50;58.20;;;;;;5104032;28;19915;-66
2022/04/10 05:11:14;;;;;;;;;;;13.50;58.20;;;;;;5103978;28;19907;-66
2022/04/10 05:13:39;;;;;;;;;;;13.50;58.10;;;;;;5103985;28;19907;-67
2022/04/10 05:16:05;;;;;;;;;;;13.50;58.10;;;;;;5103943;28;19915;-68
2022/04/10 05:18:31;;;;;;;;;;;13.50;58.10;;;;;;5103832;28;19912;-66
2022/04/10 05:20:57;;;;;;;;;;;13.50;58.20;;;;;;5103870;28;19912;-66
2022/04/10 05:23:22;;;;;;;;;;;13.50;58.10;;;;;;5103812;28;20246;-67
2022/04/10 05:25:50;;;;;;;;;;;13.50;58.10;;;;;;5103725;28;19908;-66
2022/04/10 05:28:16;;;;;;;;;;;13.50;58.10;;;;;;5103658;28;19981;-66
2022/04/10 05:30:42;;;;;;;;;;;13.50;58.10;;;;;;5103848;28;19908;-66
2022/04/10 05:33:08;;;;;;;;;;;13.50;58.10;;;;;;5103838;28;19908;-66
2022/04/10 05:35:34;;;;;;;;;;;13.50;58.10;;;;;;5103392;28;19922;-67
2022/04/10 05:38:00;;;;;;;;;;;13.50;58.10;;;;;;5103709;28;19911;-67
2022/04/10 05:40:25;;;;;;;;;;;13.50;58.10;;;;;;5103439;28;19977;-66
2022/04/10 05:42:51;;;;;;;;;;;13.50;58.10;;;;;;5103336;28;20238;-66
2022/04/10 05:45:16;;;;;;;;;;;13.50;58.10;;;;;;5103367;28;19904;-66
2022/04/10 05:47:43;;;;;;;;;;;13.50;58.10;;;;;;5103280;28;19908;-67
2022/04/10 05:50:09;;;;;;;;;;;13.50;58.10;;;;;;5102980;28;20108;-66
2022/04/10 05:52:38;;;;;;;;;;;13.50;58.10;;;;;;5103466;28;19915;-66
2022/04/10 05:55:04;;;;;;;;;;;13.50;58.10;;;;;;5103076;28;19969;-66
2022/04/10 05:57:30;;;;;;;;;;;13.50;58.10;;;;;;5103181;28;19916;-67
2022/04/10 05:59:55;;;;;;;;;;;13.40;58.00;;;;;;5103081;28;20260;-66
2022/04/10 06:02:21;;;;;;;;;;;13.50;58.00;;;;;;5103196;28;19900;-66
2022/04/10 06:04:46;;;;;;;;;;;13.50;58.10;;;;;;5102845;28;19946;-66
2022/04/10 06:07:12;;;;;;;;;;;13.50;58.10;;;;;;5102788;28;20151;-67
2022/04/10 06:09:38;;;;;;;;;;;13.50;58.00;;;;;;5100635;28;19911;-67
2022/04/10 06:12:04;;;;;;;;;;;13.40;58.00;;;;;;5102793;28;19908;-66
2022/04/10 06:14:29;;;;;;;;;;;13.50;58.10;;;;;;5102815;28;20460;-67
2022/04/10 06:16:55;;;;;;;;;;;13.50;58.00;;;;;;5102713;28;20215;-66
2022/04/10 06:19:20;;;;;;;;;;;13.50;58.00;;;;;;5102607;28;19947;-66
2022/04/10 06:21:46;;;;;;;;;;;13.50;58.00;;;;;;5102835;28;20305;-66
2022/04/10 06:24:11;;;;;;;;;;;13.50;58.00;;;;;;5102594;28;20073;-66
2022/04/10 06:26:37;;;;;;;;;;;13.50;57.90;;;;;;5102553;28;19908;-66
2022/04/10 06:29:03;;;;;;;;;;;13.50;57.80;;;;;;5102459;28;19954;-67
2022/04/10 06:31:28;;;;;;;;;;;13.50;57.80;;;;;;5102480;28;19908;-68
2022/04/10 06:33:56;;;;;;;;;;;13.50;57.70;;;;;;5102306;28;19908;-66
2022/04/10 06:36:22;;;;;;;;;;;13.60;57.70;;;;;;5102368;28;19923;-67
2022/04/10 06:38:49;;;;;;;;;;;13.60;57.70;;;;;;5102278;28;19911;-66
2022/04/10 06:41:14;;;;;;;;;;;13.60;57.70;;;;;;5102229;28;19907;-67
2022/04/10 06:43:40;;;;;;;;;;;13.60;57.60;;;;;;5102203;28;19908;-67
2022/04/10 06:46:06;;;;;;;;;;;13.50;57.50;;;;;;5102160;28;19962;-66
2022/04/10 06:48:32;;;;;;;;;;;13.60;57.60;;;;;;5102105;28;19900;-66
2022/04/10 06:50:57;;;;;;;;;;;13.60;57.60;;;;;;5101874;28;19916;-67
2022/04/10 06:53:24;;;;;;;;;;;13.60;57.50;;;;;;5101928;28;20196;-68
2022/04/10 06:55:49;;;;;;;;;;;13.60;57.50;;;;;;5102041;28;20191;-66
2022/04/10 06:58:16;;;;;;;;;;;13.60;57.50;;;;;;5101726;28;20204;-67
2022/04/10 07:00:42;;;;;;;;;;;13.60;57.50;;;;;;5101833;28;19908;-67
2022/04/10 07:03:08;;;;;;;;;;;13.60;57.40;;;;;;5101847;28;19988;-67
2022/04/10 07:05:33;;;;;;;;;;;13.60;57.40;;;;;;5101739;28;19912;-66
2022/04/10 07:07:59;;;;;;;;;;;13.60;57.40;;;;;;5101717;28;19914;-66
2022/04/10 07:10:25;;;;;;;;;;;13.60;57.40;;;;;;5101693;28;19985;-67
2022/04/10 07:12:50;;;;;;;;;;;13.70;57.40;;;;;;5101617;28;19914;-66
2022/04/10 07:15:17;;;;;;;;;;;13.60;57.40;;;;;;5101632;28;19908;-67
2022/04/10 07:17:43;;;;;;;;;;;13.60;57.40;;;;;;5101670;28;19912;-66
2022/04/10 07:20:08;;;;;;;;;;;13.60;57.40;;;;;;5101456;28;19904;-66
2022/04/10 07:25:18;;;;;;;;;;;13.70;57.40;;;;;;5101429;28;19982;-67
2022/04/10 07:27:44;;;;;;;;;;;13.70;57.30;;;;;;5101255;28;19900;-66
2022/04/10 07:30:09;;;;;;;;;;;13.80;57.30;;;;;;5101288;28;19995;-66
2022/04/10 07:32:37;;;;;;;;;;;13.90;56.90;;;;;;5101244;28;19908;-67
2022/04/10 07:35:04;;;;;;;;;;;14.00;56.80;;;;;;5101185;28;19914;-67
2022/04/10 07:37:29;;;;;;;;;;;14.00;56.70;;;;;;5101036;28;19908;-66
2022/04/10 07:39:55;;;;;;;;;;;14.10;56.60;;;;;;5101113;28;19908;-67
2022/04/10 07:42:21;;;;;;;;;;;14.10;56.50;;;;;;5101073;28;20081;-67
2022/04/10 07:44:46;;;;;;;;;;;14.10;56.40;;;;;;5101002;28;19900;-68
2022/04/10 07:47:27;;;;;;;;;;;14.10;56.30;;;;;;5100936;28;19908;-67
2022/04/10 07:49:53;;;;;;;;;;;14.10;56.40;;;;;;5100957;28;19923;-67
2022/04/10 07:52:19;;;;;;;;;;;14.10;56.50;;;;;;5100742;28;19908;-66
2022/04/10 07:54:45;;;;;;;;;;;14.10;56.50;;;;;;5100863;28;20069;-66
2022/04/10 07:57:11;;;;;;;;;;;14.10;56.50;;;;;;5100709;28;20198;-67
2022/04/10 07:59:36;;;;;;;;;;;14.10;56.50;;;;;;5100737;28;19963;-66
2022/04/10 08:02:02;;;;;;;;;;;14.10;56.50;;;;;;5100636;28;20282;-67
2022/04/10 08:04:28;;;;;;;;;;;14.10;56.50;;;;;;5100711;28;19945;-66
2022/04/10 08:06:54;;;;;;;;;;;14.10;56.50;;;;;;5100576;28;20188;-66
2022/04/10 08:09:20;;;;;;;;;;;14.10;56.40;;;;;;5100583;28;20394;-66
2022/04/10 08:11:45;;;;;;;;;;;14.10;56.40;;;;;;5100561;28;19908;-66
2022/04/10 08:14:11;;;;;;;;;;;14.10;56.40;;;;;;5100492;28;20265;-67
2022/04/10 08:16:36;;;;;;;;;;;14.10;56.50;;;;;;5100484;28;19941;-66
2022/04/10 08:19:02;;;;;;;;;;;14.10;56.40;;;;;;5100543;28;19911;-67
2022/04/10 08:21:28;;;;;;;;;;;14.10;56.40;;;;;;5100457;28;19965;-67
2022/04/10 08:23:53;;;;;;;;;;;14.10;56.40;;;;;;5100281;28;19914;-66
2022/04/10 08:26:19;;;;;;;;;;;14.20;56.40;;;;;;5100283;28;19907;-67
2022/04/10 08:28:44;;;;;;;;;;;14.20;56.30;;;;;;5100261;28;19976;-66
2022/04/10 08:31:10;;;;;;;;;;;14.20;56.40;;;;;;5100244;28;19907;-67
2022/04/10 08:33:35;;;;;;;;;;;14.10;56.30;;;;;;5099799;28;19915;-66
2022/04/10 08:36:01;;;;;;;;;;;14.20;56.40;;;;;;5100119;28;20096;-66
2022/04/10 08:38:27;;;;;;;;;;;14.10;56.40;;;;;;5100376;28;20180;-67
2022/04/10 08:40:57;;;;;;;;;;;14.20;56.50;;;;;;5100082;28;19908;-67
2022/04/10 08:43:22;;;;;;;;;;;14.20;56.40;;;;;;5100011;28;19934;-67
2022/04/10 08:45:48;;;;;;;;;;;14.20;56.30;;;;;;5100052;28;19908;-66
2022/04/10 08:48:14;;;;;;;;;;;14.20;56.30;;;;;;5100011;28;19938;-67
2022/04/10 08:50:40;;;;;;;;;;;14.20;56.40;;;;;;5099890;28;19915;-67
2022/04/10 08:53:06;;;;;;;;;;;14.20;56.40;;;;;;5099965;28;19935;-67
2022/04/10 08:55:31;;;;;;;;;;;14.20;56.40;;;;;;5100064;28;20357;-67
2022/04/10 08:57:57;;;;;;;;;;;14.10;56.40;;;;;;5099912;28;19916;-66
2022/04/10 09:00:23;;;;;;;;;;;14.20;56.40;;;;;;5099915;28;19911;-66
2022/04/10 09:02:50;;;;;;;;;;;14.20;56.30;;;;;;5099925;28;19908;-67
2022/04/10 09:05:19;;;;;;;;;;;14.20;56.40;;;;;;5099851;28;19979;-66
2022/04/10 09:08:03;;;;;;;;;;;14.20;56.40;;;;;;5099817;28;19907;-67
2022/04/10 09:10:28;;;;;;;;;;;14.20;56.30;;;;;;5099812;28;19908;-66
2022/04/10 09:12:54;;;;;;;;;;;14.20;56.30;;;;;;5099738;28;20242;-66
2022/04/10 09:15:20;;;;;;;;;;;14.20;56.40;;;;;;5099840;28;19988;-67
2022/04/10 09:17:54;;;;;;;;;;;14.20;56.30;;;;;;5099708;28;20227;-66
2022/04/10 09:20:20;;;;;;;;;;;14.20;56.40;;;;;;5099741;28;19908;-66
2022/04/10 09:22:45;;;;;;;;;;;14.20;56.30;;;;;;5099706;28;19948;-66
2022/04/10 09:25:12;;;;;;;;;;;14.20;56.30;;;;;;5099638;28;19900;-66
2022/04/10 09:27:42;;;;;;;;;;;14.20;56.30;;;;;;5099691;28;19950;-68
2022/04/10 09:30:09;;;;;;;;;;;14.20;56.30;;;;;;5099618;28;19908;-67
2022/04/10 09:32:41;;;;;;;;;;;14.20;56.30;;;;;;5099563;28;19976;-67
2022/04/10 09:35:07;;;;;;;;;;;14.20;56.40;;;;;;5099527;28;19912;-66
2022/04/10 09:37:41;;;;;;;;;;;14.20;56.40;;;;;;5099385;28;20025;-67
2022/04/10 09:40:25;;;;;;;;;;;14.30;56.50;;;;;;5098287;28;20171;-68
2022/04/10 09:42:56;;;;;;;;;;;14.20;56.80;;;;;;5099502;28;19908;-67
2022/04/10 09:45:28;;;;;;;;;;;14.20;56.20;;;;;;5101990;28;19900;-66
2022/04/10 09:47:54;;;;;;;;;;;14.20;56.30;;;;;;5103153;28;19939;-67
2022/04/10 09:50:31;;;;;;;;;;;14.20;56.30;;;;;;5103088;28;19915;-67
2022/04/10 09:52:56;;;;;;;;;;;14.20;56.30;;;;;;5103133;28;19915;-66
2022/04/10 09:55:34;;;;;;;;;;;14.20;56.30;;;;;;5103019;28;19908;-66
2022/04/10 09:58:00;;;;;;;;;;;14.20;56.40;;;;;;5103193;28;19924;-67
2022/04/10 10:00:26;;;;;;;;;;;14.30;56.30;;;;;;5103006;28;20104;-66
2022/04/10 10:02:53;;;;;;;;;;;14.20;56.40;;;;;;5102966;28;19923;-66
2022/04/10 10:05:19;;;;;;;;;;;14.30;56.40;;;;;;5102874;28;19907;-67
2022/04/10 10:07:45;;;;;;;;;;;14.30;56.30;;;;;;5102819;28;19950;-66
2022/04/10 10:10:11;;;;;;;;;;;14.30;56.30;;;;;;5102810;28;20138;-66
2022/04/10 10:12:37;;;;;;;;;;;14.20;56.30;;;;;;5102767;28;19900;-67
2022/04/10 10:15:02;;;;;;;;;;;14.30;56.40;;;;;;5102713;28;20342;-68
2022/04/10 10:17:28;;;;;;;;;;;14.30;56.20;;;;;;5102640;28;19908;-67
2022/04/10 10:19:55;;;;;;;;;;;14.30;56.30;;;;;;5102567;28;19900;-66
2022/04/10 10:22:20;;;;;;;;;;;14.30;56.30;;;;;;5102570;28;19908;-67
2022/04/10 10:24:52;;;;;;;;;;;14.30;56.20;;;;;;5102496;28;19942;-66
2022/04/10 10:27:18;;;;;;;;;;;14.30;56.30;;;;;;5102508;28;19911;-67
2022/04/10 10:29:49;;;;;;;;;;;14.30;56.30;;;;;;5102450;28;20233;-66
2022/04/10 10:32:17;;;;;;;;;;;14.30;56.30;;;;;;5101013;28;19908;-66
2022/04/10 10:34:43;;;;;;;;;;;14.30;56.40;;;;;;5102291;28;19931;-67
2022/04/10 10:37:11;;;;;;;;;;;14.30;56.40;;;;;;5102294;28;20184;-66
2022/04/10 10:39:48;;;;;;;;;;;14.30;56.40;;;;;;5102320;28;20188;-66
2022/04/10 10:42:14;;;;;;;;;;;14.30;56.30;;;;;;5102131;28;19969;-66
2022/04/10 10:44:47;;;;;;;;;;;14.40;56.30;;;;;;5102186;28;19912;-68
2022/04/10 10:47:19;;;;;;;;;;;14.30;56.40;;;;;;5102071;28;20327;-67
2022/04/10 10:49:45;;;;;;;;;;;14.30;56.30;;;;;;5102309;28;19971;-66
2022/04/10 10:52:13;;;;;;;;;;;14.40;56.20;;;;;;5101829;28;20204;-67
2022/04/10 10:54:44;;;;;;;;;;;14.40;56.40;;;;;;5101641;28;19912;-67
2022/04/10 10:57:21;;;;;;;;;;;14.30;56.30;;;;;;5102057;28;19999;-66
2022/04/10 10:59:50;;;;;;;;;;;14.40;56.40;;;;;;5101861;28;19930;-66
2022/04/10 11:02:17;;;;;;;;;;;14.40;56.30;;;;;;5101781;28;19931;-66
2022/04/10 11:04:52;;;;;;;;;;;14.40;56.20;;;;;;5101697;28;19908;-66
2022/04/10 11:07:18;;;;;;;;;;;14.40;56.20;;;;;;5101700;28;20211;-67
2022/04/10 11:09:53;;;;;;;;;;;14.40;56.30;;;;;;5101583;28;19907;-67
2022/04/10 11:12:21;;;;;;;;;;;14.40;56.20;;;;;;5101614;28;19908;-66
2022/04/10 11:14:50;;;;;;;;;;;14.40;56.20;;;;;;5101765;28;19908;-66
2022/04/10 11:17:29;;;;;;;;;;;14.50;56.30;;;;;;5101661;28;19908;-67
2022/04/10 11:20:03;;;;;;;;;;;14.40;56.20;;;;;;5101619;28;19929;-66
2022/04/10 11:22:32;;;;;;;;;;;14.40;56.30;;;;;;5101675;28;19912;-67
2022/04/10 11:24:58;;;;;;;;;;;14.40;56.40;;;;;;5101373;28;19915;-67
2022/04/10 11:27:43;;;;;;;;;;;14.40;56.30;;;;;;5101290;28;19941;-66
2022/04/10 11:30:12;;;;;;;;;;;14.40;56.30;;;;;;5101279;28;19900;-66
2022/04/10 11:32:52;;;;;;;;;;;14.40;56.40;;;;;;5100235;28;19924;-67
2022/04/10 11:35:23;;;;;;;;;;;14.40;56.20;;;;;;5101188;28;19908;-67
2022/04/10 11:37:50;;;;;;;;;;;14.50;56.40;;;;;;5101036;28;20234;-66
2022/04/10 11:40:31;;;;;;;;;;;14.40;56.30;;;;;;5100969;28;19908;-66
2022/04/10 11:42:58;;;;;;;;;;;14.50;56.30;;;;;;5101062;28;19942;-66
2022/04/10 11:45:25;;;;;;;;;;;14.50;56.30;;;;;;5100919;28;19900;-67
2022/04/10 11:47:50;;;;;;;;;;;14.50;56.30;;;;;;5100899;28;20216;-67
2022/04/10 11:50:17;;;;;;;;;;;14.50;56.30;;;;;;5100685;28;19915;-66
2022/04/10 11:52:58;;;;;;;;;;;14.50;56.30;;;;;;5100723;28;19916;-66
2022/04/10 11:55:31;;;;;;;;;;;14.50;56.30;;;;;;5100794;28;19911;-66
2022/04/10 11:57:57;;;;;;;;;;;14.50;56.30;;;;;;5101007;28;19961;-67
2022/04/10 12:00:23;;;;;;;;;;;14.50;56.30;;;;;;5100692;28;20193;-66
2022/04/10 12:02:52;;;;;;;;;;;14.50;56.30;;;;;;5100688;28;19908;-67
2022/04/10 12:05:18;;;;;;;;;;;14.50;56.30;;;;;;5100712;28;20227;-67
2022/04/10 12:07:44;;;;;;;;;;;14.50;56.30;;;;;;5099732;28;19900;-66
2022/04/10 12:10:09;;;;;;;;;;;14.50;56.20;;;;;;5100559;28;19908;-67
2022/04/10 12:12:38;;;;;;;;;;;14.50;56.20;;;;;;5100449;28;19907;-68
2022/04/10 12:15:14;;;;;;;;;;;14.50;56.30;;;;;;5100405;28;20129;-66
2022/04/10 12:17:39;;;;;;;;;;;14.60;56.30;;;;;;5100338;28;19965;-67
2022/04/10 12:20:05;;;;;;;;;;;14.60;56.30;;;;;;5100241;28;19911;-66
2022/04/10 12:22:31;;;;;;;;;;;14.50;56.30;;;;;;5100299;28;19908;-67
2022/04/10 12:24:57;;;;;;;;;;;14.50;56.40;;;;;;5100321;28;20245;-67
2022/04/10 12:27:23;;;;;;;;;;;14.50;56.30;;;;;;5100261;28;19945;-67
2022/04/10 12:29:49;;;;;;;;;;;14.60;56.10;;;;;;5100225;28;19904;-67
2022/04/10 12:32:14;;;;;;;;;;;14.60;56.30;;;;;;5100112;28;19915;-66
2022/04/10 12:34:42;;;;;;;;;;;14.60;56.30;;;;;;5100162;28;19971;-66
2022/04/10 12:37:08;;;;;;;;;;;14.60;56.20;;;;;;5100131;28;20158;-66
2022/04/10 12:39:34;;;;;;;;;;;14.60;56.20;;;;;;5100026;28;19907;-66
2022/04/10 12:42:04;;;;;;;;;;;14.60;56.40;;;;;;5100140;28;19912;-67
2022/04/10 12:44:29;;;;;;;;;;;14.60;56.30;;;;;;5100087;28;19911;-67
2022/04/10 12:46:55;;;;;;;;;;;14.60;56.30;;;;;;5099972;28;19908;-67
2022/04/10 12:49:21;;;;;;;;;;;14.60;56.30;;;;;;5100055;28;19908;-67
2022/04/10 12:52:02;;;;;;;;;;;14.60;56.20;;;;;;5099842;28;19974;-67
2022/04/10 12:54:35;;;;;;;;;;;14.60;56.30;;;;;;5100004;28;19915;-68
2022/04/10 12:57:02;;;;;;;;;;;14.60;56.20;;;;;;5099973;28;19908;-66
2022/04/10 12:59:48;;;;;;;;;;;14.60;56.20;;;;;;5099870;28;19922;-67
2022/04/10 13:02:21;;;;;;;;;;;14.70;56.30;;;;;;5099877;28;19971;-66
2022/04/10 13:04:57;;;;;;;;;;;14.70;56.20;;;;;;5099785;28;19908;-66
2022/04/10 13:07:23;;;;;;;;;;;14.70;56.00;;;;;;5099754;28;20203;-67
2022/04/10 13:09:50;;;;;;;;;;;14.70;56.20;;;;;;5099862;28;19900;-67
2022/04/10 13:12:27;;;;;;;;;;;14.70;56.30;;;;;;5099851;28;19930;-67
2022/04/10 13:14:53;;;;;;;;;;;14.70;56.20;;;;;;5099715;28;19935;-67
2022/04/10 13:17:18;;;;;;;;;;;14.70;56.20;;;;;;5099626;28;19908;-66
2022/04/10 13:19:44;;;;;;;;;;;14.80;56.30;;;;;;5102957;28;20359;-66
2022/04/10 13:22:10;;;;;;;;;;;14.80;56.20;;;;;;5103740;28;20130;-66
2022/04/10 13:24:35;;;;;;;;;;;14.80;56.20;;;;;;5103658;28;19904;-66
2022/04/10 13:27:02;;;;;;;;;;;14.80;56.20;;;;;;5103637;28;19982;-67
2022/04/10 13:29:28;;;;;;;;;;;14.80;56.20;;;;;;5103687;28;19965;-67
2022/04/10 13:31:53;;;;;;;;;;;14.80;56.20;;;;;;5103537;28;19899;-66
2022/04/10 13:34:19;;;;;;;;;;;14.80;56.20;;;;;;5103497;28;19915;-67
2022/04/10 13:36:45;;;;;;;;;;;14.80;55.90;;;;;;5103536;28;19949;-67
2022/04/10 13:39:10;;;;;;;;;;;14.90;55.90;;;;;;5103340;28;20424;-67
2022/04/10 13:41:36;;;;;;;;;;;14.90;55.90;;;;;;5103390;28;19950;-66
2022/04/10 13:44:01;;;;;;;;;;;14.90;55.80;;;;;;5103314;28;19941;-66
2022/04/10 13:46:27;;;;;;;;;;;14.90;55.90;;;;;;5103258;28;19908;-66
2022/04/10 13:48:53;;;;;;;;;;;14.90;55.90;;;;;;5103203;28;19935;-68
2022/04/10 13:51:18;;;;;;;;;;;15.00;55.80;;;;;;5102978;28;20095;-66
2022/04/10 13:53:44;;;;;;;;;;;15.00;55.70;;;;;;5103056;28;19912;-66
2022/04/10 13:56:09;;;;;;;;;;;15.00;55.70;;;;;;5103134;28;19915;-66
2022/04/10 13:58:35;;;;;;;;;;;15.00;55.90;;;;;;5102939;28;20255;-67
2022/04/10 14:01:02;;;;;;;;;;;15.00;55.70;;;;;;5103021;28;19908;-67
2022/04/10 14:03:28;;;;;;;;;;;15.00;55.90;;;;;;5103038;28;19908;-67
2022/04/10 14:05:53;;;;;;;;;;;15.00;55.90;;;;;;5102877;28;19975;-66
2022/04/10 14:08:19;;;;;;;;;;;15.00;55.80;;;;;;5102891;28;20169;-66
2022/04/10 14:10:45;;;;;;;;;;;15.10;55.70;;;;;;5102831;28;19970;-67
2022/04/10 14:13:10;;;;;;;;;;;15.10;55.60;;;;;;5102776;28;19985;-67
2022/04/10 14:15:36;;;;;;;;;;;15.10;55.40;;;;;;5102767;28;19915;-67
2022/04/10 14:18:01;;;;;;;;;;;15.20;55.50;;;;;;5102617;28;19904;-66